| Temp 5ft | 65.2 °F 6.7 |
|---|---|
| Temp 30ft | 65.5 °F 6.2 |
| Inversion | 0.3 °F 0.5 |
| RH | 70 % 7 |
| Dew Pt | 55.3 °F 3.9 |
| Wind Spd | 0.0 mph 1.6 |
| Wind Gust | 0.0 mph 5.4 |
| Solar Rad | 0 W/m2 0 |
| BatVolt | 12.6 V 0.0 |
| Daily Max Temp | 83.9 °F 1.7 |
|---|---|
| Time of Max Temp | 1527 |
| Daily Min Temp | 50.0 °F 5.3 |
| Time of Min Temp | 0611 |
| Daily Max Wind | 15.2 mph 0.7 |
| Time of Max Wind | 1527 |
| Daily Rain | 0.00 In |
| Daily ETo | 0.180 in 0.005 |
| Yest MaxT | 85.6 °F |
| Yest MinT | 44.7 °F |
| Yest MaxGst | 15.8 mph |
| Yest Precip | 0.00 In |
| Yest ETo | 0.18 In |
| Date | Daily Max Temp (°F) | Time of Max Temp | Daily Min Temp (°F) | Time of Min Temp | Daily Rain (In) | Month Precip (In) | Season Precip (In) | Wind Spd (mph) | Daily Max Wind (mph) | Time of Max Wind | Daily ETo (in) | 7 Day ETo (in) | Daily Solar Rad (Cal/cm2) | Dew Pt (°F) | Daily Max RH (%) | Daily Min RH (%) | Hrs 70-85F (hrs) | Hrs > 95F (hrs) | Powdery Mildew Stress (pts) | GDDs (DL) | GDDs (Mx/Mn) | Seas GDDs (DL) | Seas GDDs (Smpl) | Max Inversion (°F) | Max Inversion Time | Min Inversion (°F) | Min Inversion Time | Hrs <= 32F (hrs) | Hrs <= 28F (hrs) | Chilling <=45F (hrs) | MinBV Day (V) |
|---|---|---|---|---|---|---|---|---|---|---|---|---|---|---|---|---|---|---|---|---|---|---|---|---|---|---|---|---|---|---|---|
| 9/3/26 | 85.6 | 1426 | 44.7 | 0559 | 0.00 | 0.00 | 0.00 | 2.8 | 15.8 | 1539 | 0.185 | 1.27 | 542 | 50.3 | 96 | 29 | 8.30 | 0.00 | 30 | 13.6 | 15.1 | 2,659 | 2,619 | 4.1 | 0104 | -5.1 | 1507 | 0.0 | 0.0 | 0.3 | 12.3 |
| 9/2/26 | 82.7 | 1445 | 42.0 | 0619 | 0.00 | 0.00 | 0.00 | 2.3 | 15.5 | 1445 | 0.182 | 1.17 | 555 | 48.8 | 96 | 30 | 8.17 | 0.00 | 10 | 12.9 | 12.4 | 2,645 | 2,604 | 5.1 | 0105 | -5.4 | 1255 | 0.0 | 0.0 | 3.4 | 12.3 |
| 9/1/26 | 78.0 | 1332 | 48.1 | 0050 | 0.00 | 0.00 | 0.00 | 3.8 | 19.5 | 1439 | 0.181 | 1.21 | 570 | 49.6 | 92 | 33 | 5.73 | 0.00 | 20 | 11.7 | 13.0 | 2,632 | 2,592 | 2.7 | 0103 | -5.5 | 1109 | 0.0 | 0.0 | 0.0 | 12.4 |
| 8/31/26 | 81.3 | 1506 | 38.6 | 0606 | 0.00 | 0.00 | 0.00 | 3.7 | 16.8 | 1254 | 0.184 | 1.26 | 544 | 46.6 | 94 | 31 | 6.50 | 0.00 | 0 | 11.0 | 9.9 | 2,621 | 2,579 | 6.1 | 0106 | -5.4 | 1311 | 0.0 | 0.0 | 5.8 | 12.3 |
| 8/30/26 | 91.4 | 1426 | 44.8 | 0054 | 0.00 | 0.00 | 0.00 | 2.8 | 16.2 | 1552 | 0.217 | 1.32 | 573 | 41.1 | 88 | 16 | 3.26 | 0.00 | 0 | 15.8 | 18.1 | 2,610 | 2,569 | 7.6 | 0108 | -5.0 | 1425 | 0.0 | 0.0 | 0.1 | 12.3 |
| 8/29/26 | 95.8 | 1516 | 53.3 | 0045 | 0.00 | 0.00 | 0.00 | 1.8 | 17.8 | 1559 | 0.184 | 1.33 | 463 | 46.9 | 71 | 16 | 2.72 | 0.10 | 0 | 22.4 | 24.6 | 2,594 | 2,551 | 7.8 | 0108 | -5.1 | 1342 | 0.0 | 0.0 | 0.0 | 12.4 |
| 8/28/26 | 96.3 | 1626 | 62.4 | 0210 | 0.00 | 0.00 | 0.00 | 1.6 | 13.2 | 1430 | 0.139 | 1.38 | 314 | 52.5 | 74 | 22 | 4.98 | 0.26 | 0 | 27.2 | 29.3 | 2,571 | 2,526 | 6.4 | 0106 | -5.0 | 1518 | 0.0 | 0.0 | 0.0 | 12.4 |
| 8/27/26 | 90.0 | 1430 | 61.3 | 0455 | 0.00 | 0.00 | 0.00 | 1.2 | 15.2 | 1710 | 0.079 | 1.46 | 139 | 50.4 | 70 | 20 | 4.85 | 0.00 | 0 | 23.1 | 25.6 | 2,544 | 2,497 | 6.7 | 0107 | -3.3 | 1432 | 0.0 | 0.0 | 0.0 | 12.3 |
| 8/26/26 | 106.9 | 1640 | 57.6 | 0631 | 0.00 | 0.00 | 0.00 | 2.0 | 14.5 | 1551 | 0.229 | 1.61 | 568 | 47.4 | 61 | 16 | 2.30 | 7.82 | 0 | 31.2 | 32.3 | 2,521 | 2,471 | 9.0 | 0109 | -6.2 | 1301 | 0.0 | 0.0 | 0.0 | 12.3 |
| 8/25/26 | 106.3 | 1618 | 53.7 | 0614 | 0.00 | 0.00 | 0.00 | 2.2 | 13.5 | 1719 | 0.233 | 1.62 | 567 | 45.9 | 66 | 15 | 3.13 | 6.90 | 0 | 29.2 | 30.0 | 2,490 | 2,439 | 7.6 | 0108 | -5.8 | 1256 | 0.0 | 0.0 | 0.0 | 12.3 |
| 8/24/26 | 99.9 | 1438 | 53.0 | 0606 | 0.00 | 0.00 | 0.00 | 2.3 | 16.2 | 1535 | 0.243 | 1.62 | 574 | 41.7 | 76 | 8 | 1.87 | 5.24 | 0 | 24.8 | 26.5 | 2,461 | 2,409 | 8.4 | 0108 | -5.7 | 1400 | 0.0 | 0.0 | 0.0 | 12.3 |
| 8/23/26 | 102.0 | 1340 | 53.8 | 0621 | 0.00 | 0.00 | 0.00 | 1.9 | 16.8 | 1630 | 0.224 | 1.60 | 560 | 49.6 | 79 | 18 | 2.61 | 4.66 | 0 | 26.1 | 27.9 | 2,436 | 2,382 | 7.9 | 0108 | -5.1 | 1320 | 0.0 | 0.0 | 0.0 | 12.3 |
| 8/22/26 | 103.1 | 1624 | 54.0 | 0615 | 0.00 | 0.00 | 0.00 | 2.1 | 14.8 | 1725 | 0.229 | 1.60 | 579 | 49.5 | 72 | 17 | 2.66 | 5.19 | 0 | 26.8 | 28.5 | 2,410 | 2,355 | 6.7 | 0107 | -6.5 | 1248 | 0.0 | 0.0 | 0.0 | 12.3 |
| 8/21/26 | 102.3 | 1503 | 52.2 | 0631 | 0.00 | 0.00 | 0.00 | 1.4 | 14.5 | 1541 | 0.221 | 1.57 | 588 | 47.0 | 79 | 16 | 2.70 | 4.54 | 0 | 25.2 | 27.3 | 2,383 | 2,326 | 6.3 | 0106 | -5.7 | 1358 | 0.0 | 0.0 | 0.0 | 12.3 |
| 8/20/26 | 100.8 | 1357 | 50.9 | 0606 | 0.00 | 0.00 | 0.00 | 1.7 | 14.5 | 1413 | 0.230 | 1.54 | 594 | 45.2 | 78 | 12 | 2.20 | 5.19 | 0 | 25.0 | 25.9 | 2,358 | 2,299 | 8.5 | 0108 | -5.4 | 1427 | 0.0 | 0.0 | 0.0 | 12.3 |
| 8/19/26 | 102.8 | 1434 | 52.4 | 0637 | 0.00 | 0.00 | 0.00 | 2.3 | 17.2 | 1612 | 0.244 | 1.47 | 602 | 47.0 | 80 | 16 | 1.91 | 5.22 | 0 | 25.1 | 27.6 | 2,333 | 2,273 | 8.4 | 0108 | -5.3 | 1339 | 0.0 | 0.0 | 0.0 | 12.4 |
| 8/18/26 | 100.9 | 1605 | 53.5 | 0421 | 0.00 | 0.00 | 0.00 | 2.1 | 16.5 | 1655 | 0.224 | 1.47 | 580 | 50.4 | 91 | 19 | 2.31 | 3.67 | 10 | 23.6 | 27.2 | 2,308 | 2,245 | 7.7 | 0108 | -5.5 | 1324 | 0.0 | 0.0 | 0.0 | 12.4 |
| 8/17/26 | 94.6 | 1342 | 47.3 | 0625 | 0.00 | 0.00 | 0.00 | 2.3 | 15.5 | 1416 | 0.223 | 1.48 | 587 | 50.2 | 83 | 24 | 3.28 | 0.00 | 20 | 20.2 | 21.0 | 2,284 | 2,218 | 5.7 | 0106 | -5.7 | 1302 | 0.0 | 0.0 | 0.0 | 12.4 |
| 8/16/26 | 93.7 | 1515 | 46.8 | 0618 | 0.00 | 0.00 | 0.00 | 2.3 | 15.8 | 1634 | 0.224 | 1.52 | 594 | 47.9 | 94 | 16 | 4.36 | 0.00 | 30 | 18.4 | 20.2 | 2,264 | 2,197 | 6.9 | 0107 | -6.2 | 1312 | 0.0 | 0.0 | 0.0 | 12.3 |
| 8/15/26 | 87.0 | 1350 | 51.2 | 0240 | 0.00 | 0.00 | 0.00 | 2.2 | 15.8 | 1629 | 0.201 | 1.58 | 586 | 54.2 | 98 | 28 | 4.21 | 0.00 | 40 | 16.2 | 19.1 | 2,245 | 2,177 | 3.5 | 0103 | -6.3 | 1331 | 0.0 | 0.0 | 0.0 | 12.4 |
| 8/14/26 | 81.9 | 1401 | 53.1 | 0059 | 0.00 | 0.00 | 0.00 | 3.0 | 19.2 | 1138 | 0.196 | 1.63 | 590 | 57.0 | 92 | 44 | 9.53 | 0.00 | 20 | 17.6 | 17.5 | 2,229 | 2,158 | 2.6 | 0103 | -5.8 | 1336 | 0.0 | 0.0 | 0.0 | 12.4 |
| 8/13/26 | 75.7 | 1338 | 56.7 | 0210 | 0.00 | 0.00 | 0.00 | 4.9 | 19.8 | 1454 | 0.160 | 1.69 | 522 | 58.2 | 96 | 59 | 6.76 | 0.00 | 0 | 15.3 | 16.2 | 2,212 | 2,140 | 1.7 | 0102 | -6.2 | 1213 | 0.0 | 0.0 | 0.0 | 12.4 |
| 8/12/26 | 92.5 | 1343 | 57.4 | 0024 | 0.00 | 0.00 | 0.00 | 3.9 | 17.8 | 1324 | 0.239 | 1.78 | 605 | 54.7 | 93 | 29 | 3.10 | 0.00 | 0 | 21.7 | 24.9 | 2,196 | 2,124 | 3.8 | 0104 | -5.3 | 1257 | 0.0 | 0.0 | 0.0 | 12.4 |
| 8/11/26 | 93.8 | 1139 | 55.5 | 0544 | 0.00 | 0.00 | 0.00 | 3.0 | 17.8 | 1545 | 0.235 | 1.81 | 564 | 49.1 | 70 | 19 | 3.23 | 0.00 | 0 | 25.0 | 24.6 | 2,175 | 2,099 | 5.8 | 0106 | -6.2 | 1257 | 0.0 | 0.0 | 0.0 | 12.4 |
| 8/10/26 | 96.3 | 1355 | 54.3 | 0617 | 0.00 | 0.00 | 0.00 | 3.6 | 17.8 | 1436 | 0.265 | 1.85 | 602 | 49.1 | 75 | 20 | 2.94 | 0.54 | 0 | 25.2 | 25.3 | 2,150 | 2,075 | 7.0 | 0107 | -5.2 | 1509 | 0.0 | 0.0 | 0.0 | 12.3 |
| 8/9/26 | 103.3 | 1343 | 53.3 | 0614 | 0.00 | 0.00 | 0.00 | 3.3 | 15.8 | 1531 | 0.280 | 1.86 | 624 | 46.6 | 70 | 14 | 2.18 | 6.32 | 0 | 28.1 | 28.3 | 2,124 | 2,049 | 6.2 | 0106 | -5.5 | 1135 | 0.0 | 0.0 | 0.0 | 12.3 |
| 8/8/26 | 101.2 | 1346 | 57.2 | 0253 | 0.00 | 0.00 | 0.00 | 2.4 | 14.5 | 1255 | 0.256 | 1.86 | 617 | 46.2 | 67 | 14 | 2.59 | 5.35 | 0 | 27.7 | 29.2 | 2,096 | 2,021 | 8.3 | 0108 | -5.5 | 1308 | 0.0 | 0.0 | 0.0 | 12.4 |
| 8/7/26 | 102.6 | 1515 | 54.8 | 0624 | 0.00 | 0.00 | 0.00 | 2.7 | 20.9 | 1439 | 0.257 | 1.87 | 617 | 49.2 | 77 | 15 | 2.75 | 4.72 | 0 | 26.9 | 28.7 | 2,069 | 1,992 | 5.6 | 0106 | -5.3 | 1112 | 0.0 | 0.0 | 0.0 | 12.3 |
| 8/6/26 | 99.1 | 1330 | 51.6 | 0615 | 0.00 | 0.00 | 0.00 | 2.5 | 15.5 | 1238 | 0.251 | 1.90 | 615 | 50.1 | 83 | 20 | 2.59 | 5.17 | 0 | 25.1 | 25.4 | 2,042 | 1,963 | 4.6 | 0105 | -5.9 | 1322 | 0.0 | 0.0 | 0.0 | 12.4 |
| 8/5/26 | 98.2 | 1423 | 46.6 | 0619 | 0.00 | 0.00 | 0.00 | 3.1 | 19.2 | 1430 | 0.264 | 1.93 | 638 | 43.8 | 83 | 11 | 1.92 | 1.76 | 0 | 21.8 | 22.4 | 2,017 | 1,938 | 5.8 | 0106 | -5.7 | 1159 | 0.0 | 0.0 | 0.0 | 12.3 |
| Max | 106.9 | - | 62.4 | - | 0.00 | 0.00 | 0.00 | 4.9 | 20.9 | - | 0.280 | 1.93 | 638 | 58.2 | 98 | 59 | 9.53 | 7.82 | - | 31.2 | 32.3 | - | - | 9.0 | - | -3.3 | - | 0.0 | 0.0 | 5.8 | 12.4 |
| Avg | - | - | - | - | - | - | - | 2.6 | - | - | - | - | - | 48.9 | - | - | 3.85 | 2.42 | - | 22.1 | 23.5 | - | - | - | - | - | - | 0.0 | 0.0 | 0.3 | - |
| Min | 75.7 | - | 38.6 | - | 0.00 | 0.00 | 0.00 | 1.2 | 13.2 | - | 0.079 | 1.17 | 139 | 41.1 | 61 | 8 | 1.87 | 0.00 | - | 11.0 | 9.9 | - | - | 1.7 | - | -6.5 | - | 0.0 | 0.0 | 0.0 | 12.3 |
| Total | - | - | - | - | - | - | - | - | - | - | - | - | - | - | - | - | 115.64 | 72.64 | - | 663.8 | 704.1 | - | - | - | - | - | - | 0.0 | 0.0 | 9.6 | - |